sensor_id;sensor_type;location;lat;lon;timestamp;temperature;humidity
20102;DHT22;10210;52.284;9.892;2023-05-07T00:01:02;15.00;99.90
20102;DHT22;10210;52.284;9.892;2023-05-07T00:03:27;15.00;99.90
20102;DHT22;10210;52.284;9.892;2023-05-07T00:05:54;15.00;99.90
20102;DHT22;10210;52.284;9.892;2023-05-07T00:08:19;15.00;99.90
20102;DHT22;10210;52.284;9.892;2023-05-07T00:10:45;15.00;99.90
20102;DHT22;10210;52.284;9.892;2023-05-07T00:13:11;15.00;99.90
20102;DHT22;10210;52.284;9.892;2023-05-07T00:15:37;15.00;99.90
20102;DHT22;10210;52.284;9.892;2023-05-07T00:18:03;14.90;99.90
20102;DHT22;10210;52.284;9.892;2023-05-07T00:20:29;14.90;99.90
20102;DHT22;10210;52.284;9.892;2023-05-07T00:22:55;14.90;99.90
20102;DHT22;10210;52.284;9.892;2023-05-07T00:25:20;14.90;99.90
20102;DHT22;10210;52.284;9.892;2023-05-07T00:27:46;14.80;99.90
20102;DHT22;10210;52.284;9.892;2023-05-07T00:30:12;14.80;99.90
20102;DHT22;10210;52.284;9.892;2023-05-07T00:32:38;14.70;99.90
20102;DHT22;10210;52.284;9.892;2023-05-07T00:35:04;14.70;99.90
20102;DHT22;10210;52.284;9.892;2023-05-07T00:37:30;14.70;99.90
20102;DHT22;10210;52.284;9.892;2023-05-07T00:39:56;14.70;99.90
20102;DHT22;10210;52.284;9.892;2023-05-07T00:42:22;14.60;99.90
20102;DHT22;10210;52.284;9.892;2023-05-07T00:44:49;14.60;99.90
20102;DHT22;10210;52.284;9.892;2023-05-07T00:47:15;14.60;99.90
20102;DHT22;10210;52.284;9.892;2023-05-07T00:49:43;14.60;99.90
20102;DHT22;10210;52.284;9.892;2023-05-07T00:52:13;14.60;99.90
20102;DHT22;10210;52.284;9.892;2023-05-07T00:54:41;14.50;99.90
20102;DHT22;10210;52.284;9.892;2023-05-07T00:57:09;14.50;99.90
20102;DHT22;10210;52.284;9.892;2023-05-07T00:59:36;14.50;99.90
20102;DHT22;10210;52.284;9.892;2023-05-07T01:02:02;14.50;99.90
20102;DHT22;10210;52.284;9.892;2023-05-07T01:04:28;14.50;99.90
20102;DHT22;10210;52.284;9.892;2023-05-07T01:06:58;14.50;99.90
20102;DHT22;10210;52.284;9.892;2023-05-07T01:09:25;14.50;99.90
20102;DHT22;10210;52.284;9.892;2023-05-07T01:11:52;14.40;99.90
20102;DHT22;10210;52.284;9.892;2023-05-07T01:14:19;14.40;99.90
20102;DHT22;10210;52.284;9.892;2023-05-07T01:16:46;14.40;99.90
20102;DHT22;10210;52.284;9.892;2023-05-07T01:19:18;14.40;99.90
20102;DHT22;10210;52.284;9.892;2023-05-07T01:21:46;14.40;99.90
20102;DHT22;10210;52.284;9.892;2023-05-07T01:24:14;14.40;99.90
20102;DHT22;10210;52.284;9.892;2023-05-07T01:26:41;14.30;99.90
20102;DHT22;10210;52.284;9.892;2023-05-07T01:29:10;14.40;99.90
20102;DHT22;10210;52.284;9.892;2023-05-07T01:31:37;14.40;99.90
20102;DHT22;10210;52.284;9.892;2023-05-07T01:34:05;14.40;99.90
20102;DHT22;10210;52.284;9.892;2023-05-07T01:36:34;14.40;99.90
20102;DHT22;10210;52.284;9.892;2023-05-07T01:39:02;14.30;99.90
20102;DHT22;10210;52.284;9.892;2023-05-07T01:41:28;14.40;99.90
20102;DHT22;10210;52.284;9.892;2023-05-07T01:43:54;14.30;99.90
20102;DHT22;10210;52.284;9.892;2023-05-07T01:46:22;14.30;99.90
20102;DHT22;10210;52.284;9.892;2023-05-07T01:48:48;14.30;99.90
20102;DHT22;10210;52.284;9.892;2023-05-07T01:51:15;14.30;99.90
20102;DHT22;10210;52.284;9.892;2023-05-07T01:53:41;14.30;99.90
20102;DHT22;10210;52.284;9.892;2023-05-07T01:56:07;14.30;99.90
20102;DHT22;10210;52.284;9.892;2023-05-07T01:58:32;14.30;99.90
20102;DHT22;10210;52.284;9.892;2023-05-07T02:00:58;14.20;99.90
20102;DHT22;10210;52.284;9.892;2023-05-07T02:03:24;14.20;99.90
20102;DHT22;10210;52.284;9.892;2023-05-07T02:05:51;14.20;99.90
20102;DHT22;10210;52.284;9.892;2023-05-07T02:08:16;14.20;99.90
20102;DHT22;10210;52.284;9.892;2023-05-07T02:10:42;14.20;99.90
20102;DHT22;10210;52.284;9.892;2023-05-07T02:13:07;14.20;99.90
20102;DHT22;10210;52.284;9.892;2023-05-07T02:15:33;14.20;99.90
20102;DHT22;10210;52.284;9.892;2023-05-07T02:18:01;14.10;99.90
20102;DHT22;10210;52.284;9.892;2023-05-07T02:20:40;14.10;99.90
20102;DHT22;10210;52.284;9.892;2023-05-07T02:23:05;14.10;99.90
20102;DHT22;10210;52.284;9.892;2023-05-07T02:25:31;14.10;99.90
20102;DHT22;10210;52.284;9.892;2023-05-07T02:27:57;14.10;99.90
20102;DHT22;10210;52.284;9.892;2023-05-07T02:30:22;14.10;99.90
20102;DHT22;10210;52.284;9.892;2023-05-07T02:32:48;14.10;99.90
20102;DHT22;10210;52.284;9.892;2023-05-07T02:35:15;14.00;99.90
20102;DHT22;10210;52.284;9.892;2023-05-07T02:37:40;14.00;99.90
20102;DHT22;10210;52.284;9.892;2023-05-07T02:40:06;14.00;99.90
20102;DHT22;10210;52.284;9.892;2023-05-07T02:42:33;14.00;99.90
20102;DHT22;10210;52.284;9.892;2023-05-07T02:44:58;14.00;99.90
20102;DHT22;10210;52.284;9.892;2023-05-07T02:47:25;14.00;99.90
20102;DHT22;10210;52.284;9.892;2023-05-07T02:49:53;14.00;99.90
20102;DHT22;10210;52.284;9.892;2023-05-07T02:52:20;13.90;99.90
20102;DHT22;10210;52.284;9.892;2023-05-07T02:54:46;13.90;99.90
20102;DHT22;10210;52.284;9.892;2023-05-07T02:57:12;13.90;99.90
20102;DHT22;10210;52.284;9.892;2023-05-07T02:59:37;13.90;99.90
20102;DHT22;10210;52.284;9.892;2023-05-07T03:02:03;13.80;99.90
20102;DHT22;10210;52.284;9.892;2023-05-07T03:04:29;13.80;99.90
20102;DHT22;10210;52.284;9.892;2023-05-07T03:06:54;13.80;99.90
20102;DHT22;10210;52.284;9.892;2023-05-07T03:09:20;13.80;99.90
20102;DHT22;10210;52.284;9.892;2023-05-07T03:11:46;13.80;99.90
20102;DHT22;10210;52.284;9.892;2023-05-07T03:14:12;13.80;99.90
20102;DHT22;10210;52.284;9.892;2023-05-07T03:16:38;13.70;99.90
20102;DHT22;10210;52.284;9.892;2023-05-07T03:19:04;13.70;99.90
20102;DHT22;10210;52.284;9.892;2023-05-07T03:21:30;13.70;99.90
20102;DHT22;10210;52.284;9.892;2023-05-07T03:23:56;13.70;99.90
20102;DHT22;10210;52.284;9.892;2023-05-07T03:26:21;13.70;99.90
20102;DHT22;10210;52.284;9.892;2023-05-07T03:28:47;13.70;99.90
20102;DHT22;10210;52.284;9.892;2023-05-07T03:31:13;13.70;99.90
20102;DHT22;10210;52.284;9.892;2023-05-07T03:33:52;13.70;99.90
20102;DHT22;10210;52.284;9.892;2023-05-07T03:36:20;13.60;99.90
20102;DHT22;10210;52.284;9.892;2023-05-07T03:38:47;13.60;99.90
20102;DHT22;10210;52.284;9.892;2023-05-07T03:41:13;13.60;99.90
20102;DHT22;10210;52.284;9.892;2023-05-07T03:43:39;13.60;99.90
20102;DHT22;10210;52.284;9.892;2023-05-07T03:46:05;13.60;99.90
20102;DHT22;10210;52.284;9.892;2023-05-07T03:48:30;13.60;99.90
20102;DHT22;10210;52.284;9.892;2023-05-07T03:50:57;13.60;99.90
20102;DHT22;10210;52.284;9.892;2023-05-07T03:53:23;13.50;99.90
20102;DHT22;10210;52.284;9.892;2023-05-07T03:55:49;13.50;99.90
20102;DHT22;10210;52.284;9.892;2023-05-07T03:58:15;13.50;99.90
20102;DHT22;10210;52.284;9.892;2023-05-07T04:00:41;13.50;99.90
20102;DHT22;10210;52.284;9.892;2023-05-07T04:03:06;13.50;99.90
20102;DHT22;10210;52.284;9.892;2023-05-07T04:05:32;13.50;99.90
20102;DHT22;10210;52.284;9.892;2023-05-07T04:07:58;13.40;99.90
20102;DHT22;10210;52.284;9.892;2023-05-07T04:10:25;13.40;99.90
20102;DHT22;10210;52.284;9.892;2023-05-07T04:12:51;13.50;99.90
20102;DHT22;10210;52.284;9.892;2023-05-07T04:15:17;13.50;99.90
20102;DHT22;10210;52.284;9.892;2023-05-07T04:17:43;13.40;99.90
20102;DHT22;10210;52.284;9.892;2023-05-07T04:20:15;13.50;99.90
20102;DHT22;10210;52.284;9.892;2023-05-07T04:22:42;13.40;99.90
20102;DHT22;10210;52.284;9.892;2023-05-07T04:25:08;13.40;99.90
20102;DHT22;10210;52.284;9.892;2023-05-07T04:27:35;13.40;99.90
20102;DHT22;10210;52.284;9.892;2023-05-07T04:30:02;13.40;99.90
20102;DHT22;10210;52.284;9.892;2023-05-07T04:32:28;13.40;99.90
20102;DHT22;10210;52.284;9.892;2023-05-07T04:34:55;13.40;99.90
20102;DHT22;10210;52.284;9.892;2023-05-07T04:37:22;13.30;99.90
20102;DHT22;10210;52.284;9.892;2023-05-07T04:39:47;13.30;99.90
20102;DHT22;10210;52.284;9.892;2023-05-07T04:42:17;13.30;99.90
20102;DHT22;10210;52.284;9.892;2023-05-07T04:44:44;13.30;99.90
20102;DHT22;10210;52.284;9.892;2023-05-07T04:47:13;13.30;99.90
20102;DHT22;10210;52.284;9.892;2023-05-07T04:49:38;13.30;99.90
20102;DHT22;10210;52.284;9.892;2023-05-07T04:52:04;13.30;99.90
20102;DHT22;10210;52.284;9.892;2023-05-07T04:54:30;13.30;99.90
20102;DHT22;10210;52.284;9.892;2023-05-07T04:56:56;13.30;99.90
20102;DHT22;10210;52.284;9.892;2023-05-07T04:59:21;13.30;99.90
20102;DHT22;10210;52.284;9.892;2023-05-07T05:01:47;13.30;99.90
20102;DHT22;10210;52.284;9.892;2023-05-07T05:04:13;13.20;99.90
20102;DHT22;10210;52.284;9.892;2023-05-07T05:06:39;13.20;99.90
20102;DHT22;10210;52.284;9.892;2023-05-07T05:09:04;13.30;99.90
20102;DHT22;10210;52.284;9.892;2023-05-07T05:11:31;13.20;99.90
20102;DHT22;10210;52.284;9.892;2023-05-07T05:13:58;13.30;99.90
20102;DHT22;10210;52.284;9.892;2023-05-07T05:16:24;13.30;99.90
20102;DHT22;10210;52.284;9.892;2023-05-07T05:18:50;13.30;99.90
20102;DHT22;10210;52.284;9.892;2023-05-07T05:21:17;13.30;99.90
20102;DHT22;10210;52.284;9.892;2023-05-07T05:23:43;13.30;99.90
20102;DHT22;10210;52.284;9.892;2023-05-07T05:26:08;13.20;99.90
20102;DHT22;10210;52.284;9.892;2023-05-07T05:28:34;13.30;99.90
20102;DHT22;10210;52.284;9.892;2023-05-07T05:31:00;13.30;99.90
20102;DHT22;10210;52.284;9.892;2023-05-07T05:33:25;13.30;99.90
20102;DHT22;10210;52.284;9.892;2023-05-07T05:35:51;13.30;99.90
20102;DHT22;10210;52.284;9.892;2023-05-07T05:38:19;13.30;99.90
20102;DHT22;10210;52.284;9.892;2023-05-07T05:40:46;13.40;99.90
20102;DHT22;10210;52.284;9.892;2023-05-07T05:43:12;13.30;99.90
20102;DHT22;10210;52.284;9.892;2023-05-07T05:45:38;13.30;99.90
20102;DHT22;10210;52.284;9.892;2023-05-07T05:48:04;13.30;99.90
20102;DHT22;10210;52.284;9.892;2023-05-07T05:50:30;13.30;99.90
20102;DHT22;10210;52.284;9.892;2023-05-07T05:52:55;13.30;99.90
20102;DHT22;10210;52.284;9.892;2023-05-07T05:55:21;13.40;99.90
20102;DHT22;10210;52.284;9.892;2023-05-07T05:57:47;13.40;99.90
20102;DHT22;10210;52.284;9.892;2023-05-07T06:00:13;13.40;99.90
20102;DHT22;10210;52.284;9.892;2023-05-07T06:02:39;13.40;99.90
20102;DHT22;10210;52.284;9.892;2023-05-07T06:05:05;13.40;99.90
20102;DHT22;10210;52.284;9.892;2023-05-07T06:07:31;13.40;99.90
20102;DHT22;10210;52.284;9.892;2023-05-07T06:09:56;13.40;99.90
20102;DHT22;10210;52.284;9.892;2023-05-07T06:12:22;13.30;99.90
20102;DHT22;10210;52.284;9.892;2023-05-07T06:14:47;13.30;99.90
20102;DHT22;10210;52.284;9.892;2023-05-07T06:17:13;13.40;99.90
20102;DHT22;10210;52.284;9.892;2023-05-07T06:19:39;13.40;99.90
20102;DHT22;10210;52.284;9.892;2023-05-07T06:22:04;13.30;99.90
20102;DHT22;10210;52.284;9.892;2023-05-07T06:24:30;13.40;99.90
20102;DHT22;10210;52.284;9.892;2023-05-07T06:26:56;13.40;99.90
20102;DHT22;10210;52.284;9.892;2023-05-07T06:29:23;13.40;99.90
20102;DHT22;10210;52.284;9.892;2023-05-07T06:31:54;13.40;99.90
20102;DHT22;10210;52.284;9.892;2023-05-07T06:34:19;13.50;99.90
20102;DHT22;10210;52.284;9.892;2023-05-07T06:36:45;13.50;99.90
20102;DHT22;10210;52.284;9.892;2023-05-07T06:39:11;13.50;99.90
20102;DHT22;10210;52.284;9.892;2023-05-07T06:41:36;13.50;99.90
20102;DHT22;10210;52.284;9.892;2023-05-07T06:44:03;13.50;99.90
20102;DHT22;10210;52.284;9.892;2023-05-07T06:46:29;13.50;99.90
20102;DHT22;10210;52.284;9.892;2023-05-07T06:48:54;13.60;99.90
20102;DHT22;10210;52.284;9.892;2023-05-07T06:51:22;13.60;99.90
20102;DHT22;10210;52.284;9.892;2023-05-07T06:53:49;13.60;99.90
20102;DHT22;10210;52.284;9.892;2023-05-07T06:56:14;13.60;99.90
20102;DHT22;10210;52.284;9.892;2023-05-07T06:58:40;13.60;99.90
20102;DHT22;10210;52.284;9.892;2023-05-07T07:01:06;13.60;99.90
20102;DHT22;10210;52.284;9.892;2023-05-07T07:03:31;13.60;99.90
20102;DHT22;10210;52.284;9.892;2023-05-07T07:05:57;13.60;99.90
20102;DHT22;10210;52.284;9.892;2023-05-07T07:08:23;13.70;99.90
20102;DHT22;10210;52.284;9.892;2023-05-07T07:10:48;13.70;99.90
20102;DHT22;10210;52.284;9.892;2023-05-07T07:13:14;13.70;99.90
20102;DHT22;10210;52.284;9.892;2023-05-07T07:15:40;13.80;99.90
20102;DHT22;10210;52.284;9.892;2023-05-07T07:18:06;13.80;99.90
20102;DHT22;10210;52.284;9.892;2023-05-07T07:20:32;13.80;99.90
20102;DHT22;10210;52.284;9.892;2023-05-07T07:22:57;13.90;99.90
20102;DHT22;10210;52.284;9.892;2023-05-07T07:25:23;13.90;99.90
20102;DHT22;10210;52.284;9.892;2023-05-07T07:27:49;13.90;99.90
20102;DHT22;10210;52.284;9.892;2023-05-07T07:30:15;14.00;99.90
20102;DHT22;10210;52.284;9.892;2023-05-07T07:32:40;14.00;99.90
20102;DHT22;10210;52.284;9.892;2023-05-07T07:35:06;14.10;99.90
20102;DHT22;10210;52.284;9.892;2023-05-07T07:37:32;14.10;99.90
20102;DHT22;10210;52.284;9.892;2023-05-07T07:39:58;14.10;99.90
20102;DHT22;10210;52.284;9.892;2023-05-07T07:42:24;14.20;99.90
20102;DHT22;10210;52.284;9.892;2023-05-07T07:44:50;14.20;99.90
20102;DHT22;10210;52.284;9.892;2023-05-07T07:47:16;14.20;99.90
20102;DHT22;10210;52.284;9.892;2023-05-07T07:49:41;14.20;99.90
20102;DHT22;10210;52.284;9.892;2023-05-07T07:52:07;14.20;99.90
20102;DHT22;10210;52.284;9.892;2023-05-07T07:54:32;14.20;99.90
20102;DHT22;10210;52.284;9.892;2023-05-07T07:56:58;14.30;99.90
20102;DHT22;10210;52.284;9.892;2023-05-07T07:59:24;14.30;99.90
20102;DHT22;10210;52.284;9.892;2023-05-07T08:01:50;14.30;99.90
20102;DHT22;10210;52.284;9.892;2023-05-07T08:04:17;14.30;99.90
20102;DHT22;10210;52.284;9.892;2023-05-07T08:06:43;14.30;99.90
20102;DHT22;10210;52.284;9.892;2023-05-07T08:09:08;14.30;99.90
20102;DHT22;10210;52.284;9.892;2023-05-07T08:11:34;14.30;99.90
20102;DHT22;10210;52.284;9.892;2023-05-07T08:14:00;14.40;99.90
20102;DHT22;10210;52.284;9.892;2023-05-07T08:16:26;14.40;99.90
20102;DHT22;10210;52.284;9.892;2023-05-07T08:18:52;14.40;99.90
20102;DHT22;10210;52.284;9.892;2023-05-07T08:21:25;14.50;99.90
20102;DHT22;10210;52.284;9.892;2023-05-07T08:23:51;14.50;99.90
20102;DHT22;10210;52.284;9.892;2023-05-07T08:26:17;14.50;99.90
20102;DHT22;10210;52.284;9.892;2023-05-07T08:28:42;14.60;99.90
20102;DHT22;10210;52.284;9.892;2023-05-07T08:31:08;14.60;99.90
20102;DHT22;10210;52.284;9.892;2023-05-07T08:33:34;14.60;99.90
20102;DHT22;10210;52.284;9.892;2023-05-07T08:35:59;14.60;99.90
20102;DHT22;10210;52.284;9.892;2023-05-07T08:38:25;14.70;99.90
20102;DHT22;10210;52.284;9.892;2023-05-07T08:40:52;14.70;99.90
20102;DHT22;10210;52.284;9.892;2023-05-07T08:43:19;14.70;99.90
20102;DHT22;10210;52.284;9.892;2023-05-07T08:45:49;14.70;99.90
20102;DHT22;10210;52.284;9.892;2023-05-07T08:48:22;14.70;99.90
20102;DHT22;10210;52.284;9.892;2023-05-07T08:50:50;14.80;99.90
20102;DHT22;10210;52.284;9.892;2023-05-07T08:53:17;14.80;99.90
20102;DHT22;10210;52.284;9.892;2023-05-07T08:55:43;14.80;99.90
20102;DHT22;10210;52.284;9.892;2023-05-07T08:58:08;14.80;99.90
20102;DHT22;10210;52.284;9.892;2023-05-07T09:00:36;14.80;99.90
20102;DHT22;10210;52.284;9.892;2023-05-07T09:03:03;14.80;99.90
20102;DHT22;10210;52.284;9.892;2023-05-07T09:05:28;14.80;99.90
20102;DHT22;10210;52.284;9.892;2023-05-07T09:07:54;14.80;99.90
20102;DHT22;10210;52.284;9.892;2023-05-07T09:10:21;14.80;99.90
20102;DHT22;10210;52.284;9.892;2023-05-07T09:12:47;14.90;99.90
20102;DHT22;10210;52.284;9.892;2023-05-07T09:15:16;14.90;99.90
20102;DHT22;10210;52.284;9.892;2023-05-07T09:17:44;15.00;99.90
20102;DHT22;10210;52.284;9.892;2023-05-07T09:20:09;15.00;99.90
20102;DHT22;10210;52.284;9.892;2023-05-07T09:22:39;15.00;99.90
20102;DHT22;10210;52.284;9.892;2023-05-07T09:25:06;15.10;99.90
20102;DHT22;10210;52.284;9.892;2023-05-07T09:27:33;15.10;99.90
20102;DHT22;10210;52.284;9.892;2023-05-07T09:29:59;15.20;99.90
20102;DHT22;10210;52.284;9.892;2023-05-07T09:32:25;15.20;99.90
20102;DHT22;10210;52.284;9.892;2023-05-07T09:34:52;15.20;99.90
20102;DHT22;10210;52.284;9.892;2023-05-07T09:37:18;15.30;99.90
20102;DHT22;10210;52.284;9.892;2023-05-07T09:39:46;15.30;99.90
20102;DHT22;10210;52.284;9.892;2023-05-07T09:42:15;15.40;99.90
20102;DHT22;10210;52.284;9.892;2023-05-07T09:44:41;15.40;99.90
20102;DHT22;10210;52.284;9.892;2023-05-07T09:47:10;15.40;99.90
20102;DHT22;10210;52.284;9.892;2023-05-07T09:49:46;15.50;99.90
20102;DHT22;10210;52.284;9.892;2023-05-07T09:52:14;15.50;99.90
20102;DHT22;10210;52.284;9.892;2023-05-07T09:54:41;15.50;99.90
20102;DHT22;10210;52.284;9.892;2023-05-07T09:57:12;15.50;99.90
20102;DHT22;10210;52.284;9.892;2023-05-07T09:59:42;15.50;99.90
20102;DHT22;10210;52.284;9.892;2023-05-07T10:02:09;15.50;99.90
20102;DHT22;10210;52.284;9.892;2023-05-07T10:04:37;15.50;99.90
20102;DHT22;10210;52.284;9.892;2023-05-07T10:07:03;15.60;99.90
20102;DHT22;10210;52.284;9.892;2023-05-07T10:09:30;15.60;99.90
20102;DHT22;10210;52.284;9.892;2023-05-07T10:11:56;15.60;99.90
20102;DHT22;10210;52.284;9.892;2023-05-07T10:14:23;15.60;99.90
20102;DHT22;10210;52.284;9.892;2023-05-07T10:16:49;15.60;99.90
20102;DHT22;10210;52.284;9.892;2023-05-07T10:19:16;15.60;99.90
20102;DHT22;10210;52.284;9.892;2023-05-07T10:21:55;15.60;99.90
20102;DHT22;10210;52.284;9.892;2023-05-07T10:24:25;15.70;99.90
20102;DHT22;10210;52.284;9.892;2023-05-07T10:26:55;15.60;99.90
20102;DHT22;10210;52.284;9.892;2023-05-07T10:32:39;15.60;99.90
20102;DHT22;10210;52.284;9.892;2023-05-07T10:35:16;15.60;99.90
20102;DHT22;10210;52.284;9.892;2023-05-07T10:37:44;15.70;99.90
20102;DHT22;10210;52.284;9.892;2023-05-07T10:40:12;15.70;99.90
20102;DHT22;10210;52.284;9.892;2023-05-07T10:42:38;15.80;99.90
20102;DHT22;10210;52.284;9.892;2023-05-07T10:45:14;15.80;99.90
20102;DHT22;10210;52.284;9.892;2023-05-07T10:48:15;15.80;99.90
20102;DHT22;10210;52.284;9.892;2023-05-07T10:50:43;15.90;99.90
20102;DHT22;10210;52.284;9.892;2023-05-07T10:53:21;15.90;99.90
20102;DHT22;10210;52.284;9.892;2023-05-07T10:55:51;15.90;99.90
20102;DHT22;10210;52.284;9.892;2023-05-07T10:58:42;16.00;99.90
20102;DHT22;10210;52.284;9.892;2023-05-07T11:04:22;16.10;99.90
20102;DHT22;10210;52.284;9.892;2023-05-07T11:15:12;16.10;99.90
20102;DHT22;10210;52.284;9.892;2023-05-07T11:17:59;16.10;99.90
20102;DHT22;10210;52.284;9.892;2023-05-07T11:20:51;16.10;99.90
20102;DHT22;10210;52.284;9.892;2023-05-07T11:26:04;16.10;99.90
20102;DHT22;10210;52.284;9.892;2023-05-07T11:28:37;16.00;99.90
20102;DHT22;10210;52.284;9.892;2023-05-07T11:31:05;16.00;99.90
20102;DHT22;10210;52.284;9.892;2023-05-07T11:33:31;16.10;99.90
20102;DHT22;10210;52.284;9.892;2023-05-07T11:35:57;16.10;99.90
20102;DHT22;10210;52.284;9.892;2023-05-07T11:38:24;16.10;99.90
20102;DHT22;10210;52.284;9.892;2023-05-07T11:40:52;16.20;99.90
20102;DHT22;10210;52.284;9.892;2023-05-07T11:43:18;16.30;99.90
20102;DHT22;10210;52.284;9.892;2023-05-07T11:45:48;16.40;99.90
20102;DHT22;10210;52.284;9.892;2023-05-07T11:48:15;16.40;99.90
20102;DHT22;10210;52.284;9.892;2023-05-07T11:50:59;16.50;99.90
20102;DHT22;10210;52.284;9.892;2023-05-07T11:53:27;16.60;99.90
20102;DHT22;10210;52.284;9.892;2023-05-07T11:55:59;16.60;99.90
20102;DHT22;10210;52.284;9.892;2023-05-07T11:58:31;16.70;99.90
20102;DHT22;10210;52.284;9.892;2023-05-07T12:00:56;16.70;99.90
20102;DHT22;10210;52.284;9.892;2023-05-07T12:03:22;16.80;99.90
20102;DHT22;10210;52.284;9.892;2023-05-07T12:05:48;16.80;99.90
20102;DHT22;10210;52.284;9.892;2023-05-07T12:08:14;16.90;99.90
20102;DHT22;10210;52.284;9.892;2023-05-07T12:10:46;16.90;99.90
20102;DHT22;10210;52.284;9.892;2023-05-07T12:13:17;16.90;99.90
20102;DHT22;10210;52.284;9.892;2023-05-07T12:15:45;16.90;99.90
20102;DHT22;10210;52.284;9.892;2023-05-07T12:18:12;17.00;99.90
20102;DHT22;10210;52.284;9.892;2023-05-07T12:20:39;17.00;99.90
20102;DHT22;10210;52.284;9.892;2023-05-07T12:23:05;17.00;99.90
20102;DHT22;10210;52.284;9.892;2023-05-07T12:25:32;17.00;99.90
20102;DHT22;10210;52.284;9.892;2023-05-07T12:28:01;17.00;99.90
20102;DHT22;10210;52.284;9.892;2023-05-07T12:30:27;17.00;99.90
20102;DHT22;10210;52.284;9.892;2023-05-07T12:32:54;17.00;99.90
20102;DHT22;10210;52.284;9.892;2023-05-07T12:35:30;17.00;99.90
20102;DHT22;10210;52.284;9.892;2023-05-07T12:37:58;17.00;99.90
20102;DHT22;10210;52.284;9.892;2023-05-07T12:40:35;17.00;99.90
20102;DHT22;10210;52.284;9.892;2023-05-07T12:43:02;16.90;99.90
20102;DHT22;10210;52.284;9.892;2023-05-07T12:45:28;16.90;99.90
20102;DHT22;10210;52.284;9.892;2023-05-07T12:47:53;16.90;99.90
20102;DHT22;10210;52.284;9.892;2023-05-07T12:50:19;16.90;99.90
20102;DHT22;10210;52.284;9.892;2023-05-07T12:52:47;16.90;99.90
20102;DHT22;10210;52.284;9.892;2023-05-07T12:55:16;16.90;99.90
20102;DHT22;10210;52.284;9.892;2023-05-07T12:57:45;16.80;99.90
20102;DHT22;10210;52.284;9.892;2023-05-07T13:00:14;16.80;99.90
20102;DHT22;10210;52.284;9.892;2023-05-07T13:02:41;16.90;99.90
20102;DHT22;10210;52.284;9.892;2023-05-07T13:05:09;16.80;99.90
20102;DHT22;10210;52.284;9.892;2023-05-07T13:07:35;16.90;99.90
20102;DHT22;10210;52.284;9.892;2023-05-07T13:10:02;16.80;99.90
20102;DHT22;10210;52.284;9.892;2023-05-07T13:12:28;16.90;99.90
20102;DHT22;10210;52.284;9.892;2023-05-07T13:14:54;16.90;99.90
20102;DHT22;10210;52.284;9.892;2023-05-07T13:17:19;17.00;99.90
20102;DHT22;10210;52.284;9.892;2023-05-07T13:19:45;17.00;99.90
20102;DHT22;10210;52.284;9.892;2023-05-07T13:22:10;17.10;99.90
20102;DHT22;10210;52.284;9.892;2023-05-07T13:24:36;17.00;99.90
20102;DHT22;10210;52.284;9.892;2023-05-07T13:27:02;17.10;99.90
20102;DHT22;10210;52.284;9.892;2023-05-07T13:29:29;17.10;99.90
20102;DHT22;10210;52.284;9.892;2023-05-07T13:31:58;17.10;99.90
20102;DHT22;10210;52.284;9.892;2023-05-07T13:34:27;17.20;99.90
20102;DHT22;10210;52.284;9.892;2023-05-07T13:37:00;17.20;99.90
20102;DHT22;10210;52.284;9.892;2023-05-07T13:39:27;17.20;99.90
20102;DHT22;10210;52.284;9.892;2023-05-07T13:41:52;17.30;99.90
20102;DHT22;10210;52.284;9.892;2023-05-07T13:44:18;17.30;99.90
20102;DHT22;10210;52.284;9.892;2023-05-07T13:46:44;17.30;99.90
20102;DHT22;10210;52.284;9.892;2023-05-07T13:49:10;17.30;99.90
20102;DHT22;10210;52.284;9.892;2023-05-07T13:51:37;17.30;99.90
20102;DHT22;10210;52.284;9.892;2023-05-07T13:54:03;17.30;99.90
20102;DHT22;10210;52.284;9.892;2023-05-07T13:56:29;17.40;99.90
20102;DHT22;10210;52.284;9.892;2023-05-07T13:58:58;17.40;99.90
20102;DHT22;10210;52.284;9.892;2023-05-07T14:01:24;17.50;99.90
20102;DHT22;10210;52.284;9.892;2023-05-07T14:03:49;17.70;99.90
20102;DHT22;10210;52.284;9.892;2023-05-07T14:06:15;17.70;99.90
20102;DHT22;10210;52.284;9.892;2023-05-07T14:08:40;17.70;99.90
20102;DHT22;10210;52.284;9.892;2023-05-07T14:11:06;17.80;99.90
20102;DHT22;10210;52.284;9.892;2023-05-07T14:13:32;17.90;99.90
20102;DHT22;10210;52.284;9.892;2023-05-07T14:15:59;18.00;99.90
20102;DHT22;10210;52.284;9.892;2023-05-07T14:18:26;18.00;99.90
20102;DHT22;10210;52.284;9.892;2023-05-07T14:20:54;18.00;99.90
20102;DHT22;10210;52.284;9.892;2023-05-07T14:23:19;18.00;99.90
20102;DHT22;10210;52.284;9.892;2023-05-07T14:25:47;18.10;99.90
20102;DHT22;10210;52.284;9.892;2023-05-07T14:28:13;18.10;99.90
20102;DHT22;10210;52.284;9.892;2023-05-07T14:30:39;18.10;99.90
20102;DHT22;10210;52.284;9.892;2023-05-07T14:33:10;18.10;99.90
20102;DHT22;10210;52.284;9.892;2023-05-07T14:35:36;18.10;99.90
20102;DHT22;10210;52.284;9.892;2023-05-07T14:38:01;18.10;99.90
20102;DHT22;10210;52.284;9.892;2023-05-07T14:40:27;18.10;99.90
20102;DHT22;10210;52.284;9.892;2023-05-07T14:42:53;18.10;99.90
20102;DHT22;10210;52.284;9.892;2023-05-07T14:45:20;18.10;99.90
20102;DHT22;10210;52.284;9.892;2023-05-07T14:47:49;18.00;99.90
20102;DHT22;10210;52.284;9.892;2023-05-07T14:50:14;18.00;99.90
20102;DHT22;10210;52.284;9.892;2023-05-07T14:52:40;17.90;99.90
20102;DHT22;10210;52.284;9.892;2023-05-07T14:55:06;17.90;99.90
20102;DHT22;10210;52.284;9.892;2023-05-07T14:57:32;17.90;99.90
20102;DHT22;10210;52.284;9.892;2023-05-07T15:00:03;17.90;99.90
20102;DHT22;10210;52.284;9.892;2023-05-07T15:02:29;17.90;99.90
20102;DHT22;10210;52.284;9.892;2023-05-07T15:04:55;17.90;99.90
20102;DHT22;10210;52.284;9.892;2023-05-07T15:07:21;17.90;99.90
20102;DHT22;10210;52.284;9.892;2023-05-07T15:09:47;17.90;99.90
20102;DHT22;10210;52.284;9.892;2023-05-07T15:12:13;17.90;99.90
20102;DHT22;10210;52.284;9.892;2023-05-07T15:14:39;17.90;99.90
20102;DHT22;10210;52.284;9.892;2023-05-07T15:17:25;17.90;99.90
20102;DHT22;10210;52.284;9.892;2023-05-07T15:19:51;17.90;99.90
20102;DHT22;10210;52.284;9.892;2023-05-07T15:22:17;17.90;99.90
20102;DHT22;10210;52.284;9.892;2023-05-07T15:24:42;17.90;99.90
20102;DHT22;10210;52.284;9.892;2023-05-07T15:27:09;17.90;99.90
20102;DHT22;10210;52.284;9.892;2023-05-07T15:29:44;17.90;99.90
20102;DHT22;10210;52.284;9.892;2023-05-07T15:32:09;17.80;99.90
20102;DHT22;10210;52.284;9.892;2023-05-07T15:34:35;17.80;99.90
20102;DHT22;10210;52.284;9.892;2023-05-07T15:37:01;17.80;99.90
20102;DHT22;10210;52.284;9.892;2023-05-07T15:39:39;17.70;99.90
20102;DHT22;10210;52.284;9.892;2023-05-07T15:42:06;17.70;99.90
20102;DHT22;10210;52.284;9.892;2023-05-07T15:44:32;17.70;99.90
20102;DHT22;10210;52.284;9.892;2023-05-07T15:46:59;17.70;99.90